sensor_id;sensor_type;location;lat;lon;timestamp;P1;durP1;ratioP1;P2;durP2;ratioP2
73841;SDS011;62184;52.006;5.924;2023-06-04T00:02:18;5.82;;;5.07;;
73841;SDS011;62184;52.006;5.924;2023-06-04T00:04:44;5.97;;;4.97;;
73841;SDS011;62184;52.006;5.924;2023-06-04T00:07:11;6.38;;;4.70;;
73841;SDS011;62184;52.006;5.924;2023-06-04T00:09:37;5.97;;;4.75;;
73841;SDS011;62184;52.006;5.924;2023-06-04T00:12:06;7.38;;;5.10;;
73841;SDS011;62184;52.006;5.924;2023-06-04T00:14:33;6.07;;;4.80;;
73841;SDS011;62184;52.006;5.924;2023-06-04T00:17:00;6.00;;;4.77;;
73841;SDS011;62184;52.006;5.924;2023-06-04T00:19:26;6.35;;;5.07;;
73841;SDS011;62184;52.006;5.924;2023-06-04T00:21:53;6.20;;;4.93;;
73841;SDS011;62184;52.006;5.924;2023-06-04T00:24:19;5.72;;;5.00;;
73841;SDS011;62184;52.006;5.924;2023-06-04T00:26:46;6.55;;;5.10;;
73841;SDS011;62184;52.006;5.924;2023-06-04T00:29:15;6.43;;;5.35;;
73841;SDS011;62184;52.006;5.924;2023-06-04T00:31:41;7.25;;;5.13;;
73841;SDS011;62184;52.006;5.924;2023-06-04T00:34:08;6.50;;;4.93;;
73841;SDS011;62184;52.006;5.924;2023-06-04T00:36:35;5.90;;;5.10;;
73841;SDS011;62184;52.006;5.924;2023-06-04T00:39:02;7.23;;;5.30;;
73841;SDS011;62184;52.006;5.924;2023-06-04T00:41:29;6.72;;;5.40;;
73841;SDS011;62184;52.006;5.924;2023-06-04T00:43:56;6.22;;;4.97;;
73841;SDS011;62184;52.006;5.924;2023-06-04T00:46:25;5.88;;;4.97;;
73841;SDS011;62184;52.006;5.924;2023-06-04T00:48:52;7.07;;;5.00;;
73841;SDS011;62184;52.006;5.924;2023-06-04T00:51:20;6.03;;;5.10;;
73841;SDS011;62184;52.006;5.924;2023-06-04T00:53:48;6.47;;;5.00;;
73841;SDS011;62184;52.006;5.924;2023-06-04T00:56:15;7.60;;;5.30;;
73841;SDS011;62184;52.006;5.924;2023-06-04T00:58:42;6.75;;;5.15;;
73841;SDS011;62184;52.006;5.924;2023-06-04T01:01:12;5.97;;;4.70;;
73841;SDS011;62184;52.006;5.924;2023-06-04T01:03:54;6.53;;;4.70;;
73841;SDS011;62184;52.006;5.924;2023-06-04T01:06:25;5.65;;;5.00;;
73841;SDS011;62184;52.006;5.924;2023-06-04T01:09:01;5.82;;;4.85;;
73841;SDS011;62184;52.006;5.924;2023-06-04T01:11:30;7.10;;;4.85;;
73841;SDS011;62184;52.006;5.924;2023-06-04T01:14:00;6.75;;;4.80;;
73841;SDS011;62184;52.006;5.924;2023-06-04T01:16:28;6.97;;;5.07;;
73841;SDS011;62184;52.006;5.924;2023-06-04T01:19:04;7.05;;;5.28;;
73841;SDS011;62184;52.006;5.924;2023-06-04T01:21:59;6.20;;;5.03;;
73841;SDS011;62184;52.006;5.924;2023-06-04T01:24:35;6.45;;;5.15;;
73841;SDS011;62184;52.006;5.924;2023-06-04T01:27:07;6.22;;;4.70;;
73841;SDS011;62184;52.006;5.924;2023-06-04T01:29:34;6.77;;;4.90;;
73841;SDS011;62184;52.006;5.924;2023-06-04T01:32:01;6.30;;;5.00;;
73841;SDS011;62184;52.006;5.924;2023-06-04T01:34:31;6.63;;;4.88;;
73841;SDS011;62184;52.006;5.924;2023-06-04T01:37:09;6.03;;;4.90;;
73841;SDS011;62184;52.006;5.924;2023-06-04T01:39:36;6.47;;;5.00;;
73841;SDS011;62184;52.006;5.924;2023-06-04T01:42:02;6.35;;;5.00;;
73841;SDS011;62184;52.006;5.924;2023-06-04T01:44:29;6.70;;;4.90;;
73841;SDS011;62184;52.006;5.924;2023-06-04T01:46:56;7.15;;;5.22;;
73841;SDS011;62184;52.006;5.924;2023-06-04T01:49:22;7.97;;;5.05;;
73841;SDS011;62184;52.006;5.924;2023-06-04T01:51:51;6.20;;;4.95;;
73841;SDS011;62184;52.006;5.924;2023-06-04T01:54:18;6.90;;;5.50;;
73841;SDS011;62184;52.006;5.924;2023-06-04T01:56:44;7.80;;;5.70;;
73841;SDS011;62184;52.006;5.924;2023-06-04T01:59:10;6.88;;;5.57;;
73841;SDS011;62184;52.006;5.924;2023-06-04T02:01:37;7.55;;;5.40;;
73841;SDS011;62184;52.006;5.924;2023-06-04T02:04:03;7.45;;;5.57;;
73841;SDS011;62184;52.006;5.924;2023-06-04T02:06:30;6.28;;;5.45;;
73841;SDS011;62184;52.006;5.924;2023-06-04T02:08:59;7.13;;;5.35;;
73841;SDS011;62184;52.006;5.924;2023-06-04T02:11:25;6.30;;;5.30;;
73841;SDS011;62184;52.006;5.924;2023-06-04T02:13:52;6.63;;;5.40;;
73841;SDS011;62184;52.006;5.924;2023-06-04T02:16:18;8.00;;;5.65;;
73841;SDS011;62184;52.006;5.924;2023-06-04T02:18:44;7.55;;;5.20;;
73841;SDS011;62184;52.006;5.924;2023-06-04T02:21:11;5.95;;;5.35;;
73841;SDS011;62184;52.006;5.924;2023-06-04T02:23:37;7.25;;;5.10;;
73841;SDS011;62184;52.006;5.924;2023-06-04T02:26:06;6.97;;;5.18;;
73841;SDS011;62184;52.006;5.924;2023-06-04T02:28:33;7.93;;;5.22;;
73841;SDS011;62184;52.006;5.924;2023-06-04T02:30:59;7.28;;;5.10;;
73841;SDS011;62184;52.006;5.924;2023-06-04T02:33:25;6.32;;;5.00;;
73841;SDS011;62184;52.006;5.924;2023-06-04T02:35:52;7.72;;;5.15;;
73841;SDS011;62184;52.006;5.924;2023-06-04T02:38:18;6.88;;;5.13;;
73841;SDS011;62184;52.006;5.924;2023-06-04T02:40:45;7.18;;;5.15;;
73841;SDS011;62184;52.006;5.924;2023-06-04T02:43:14;6.78;;;5.30;;
73841;SDS011;62184;52.006;5.924;2023-06-04T02:45:40;6.57;;;5.40;;
73841;SDS011;62184;52.006;5.924;2023-06-04T02:48:06;6.25;;;5.40;;
73841;SDS011;62184;52.006;5.924;2023-06-04T02:50:33;6.90;;;5.40;;
73841;SDS011;62184;52.006;5.924;2023-06-04T02:52:59;6.72;;;5.20;;
73841;SDS011;62184;52.006;5.924;2023-06-04T02:55:26;6.97;;;5.10;;
73841;SDS011;62184;52.006;5.924;2023-06-04T02:57:52;6.68;;;5.10;;
73841;SDS011;62184;52.006;5.924;2023-06-04T03:00:21;6.72;;;5.10;;
73841;SDS011;62184;52.006;5.924;2023-06-04T03:02:48;6.00;;;5.13;;
73841;SDS011;62184;52.006;5.924;2023-06-04T03:05:14;6.78;;;5.22;;
73841;SDS011;62184;52.006;5.924;2023-06-04T03:07:43;6.30;;;5.40;;
73841;SDS011;62184;52.006;5.924;2023-06-04T03:10:11;7.60;;;5.30;;
73841;SDS011;62184;52.006;5.924;2023-06-04T03:12:39;7.60;;;5.50;;
73841;SDS011;62184;52.006;5.924;2023-06-04T03:15:07;6.72;;;5.13;;
73841;SDS011;62184;52.006;5.924;2023-06-04T03:17:37;6.93;;;5.33;;
73841;SDS011;62184;52.006;5.924;2023-06-04T03:20:04;7.00;;;5.32;;
73841;SDS011;62184;52.006;5.924;2023-06-04T03:22:32;8.38;;;5.20;;
73841;SDS011;62184;52.006;5.924;2023-06-04T03:24:58;7.50;;;5.15;;
73841;SDS011;62184;52.006;5.924;2023-06-04T03:27:25;7.47;;;5.25;;
73841;SDS011;62184;52.006;5.924;2023-06-04T03:29:51;7.05;;;5.10;;
73841;SDS011;62184;52.006;5.924;2023-06-04T03:32:17;8.07;;;5.70;;
73841;SDS011;62184;52.006;5.924;2023-06-04T03:34:46;6.50;;;5.00;;
73841;SDS011;62184;52.006;5.924;2023-06-04T03:37:13;8.10;;;5.30;;
73841;SDS011;62184;52.006;5.924;2023-06-04T03:39:39;6.43;;;5.10;;
73841;SDS011;62184;52.006;5.924;2023-06-04T03:42:06;6.68;;;4.88;;
73841;SDS011;62184;52.006;5.924;2023-06-04T03:44:32;7.50;;;4.90;;
73841;SDS011;62184;52.006;5.924;2023-06-04T03:46:58;6.55;;;4.72;;
73841;SDS011;62184;52.006;5.924;2023-06-04T03:49:25;6.20;;;4.60;;
73841;SDS011;62184;52.006;5.924;2023-06-04T03:51:54;6.50;;;4.90;;
73841;SDS011;62184;52.006;5.924;2023-06-04T03:54:21;7.63;;;5.32;;
73841;SDS011;62184;52.006;5.924;2023-06-04T03:56:47;6.82;;;5.00;;
73841;SDS011;62184;52.006;5.924;2023-06-04T03:59:14;7.10;;;4.82;;
73841;SDS011;62184;52.006;5.924;2023-06-04T04:01:41;6.90;;;5.00;;
73841;SDS011;62184;52.006;5.924;2023-06-04T04:04:08;7.75;;;4.85;;
73841;SDS011;62184;52.006;5.924;2023-06-04T04:06:35;9.32;;;5.30;;
73841;SDS011;62184;52.006;5.924;2023-06-04T04:09:04;7.38;;;5.20;;
73841;SDS011;62184;52.006;5.924;2023-06-04T04:11:30;6.82;;;5.00;;
73841;SDS011;62184;52.006;5.924;2023-06-04T04:13:57;6.55;;;5.15;;
73841;SDS011;62184;52.006;5.924;2023-06-04T04:16:23;8.25;;;5.13;;
73841;SDS011;62184;52.006;5.924;2023-06-04T04:18:50;7.40;;;5.13;;
73841;SDS011;62184;52.006;5.924;2023-06-04T04:21:16;7.47;;;5.10;;
73841;SDS011;62184;52.006;5.924;2023-06-04T04:23:44;7.22;;;4.95;;
73841;SDS011;62184;52.006;5.924;2023-06-04T04:26:14;6.82;;;4.88;;
73841;SDS011;62184;52.006;5.924;2023-06-04T04:28:40;7.63;;;4.87;;
73841;SDS011;62184;52.006;5.924;2023-06-04T04:31:07;7.60;;;5.30;;
73841;SDS011;62184;52.006;5.924;2023-06-04T04:33:33;7.53;;;4.97;;
73841;SDS011;62184;52.006;5.924;2023-06-04T04:36:02;7.97;;;4.90;;
73841;SDS011;62184;52.006;5.924;2023-06-04T04:38:28;7.40;;;5.15;;
73841;SDS011;62184;52.006;5.924;2023-06-04T04:40:55;7.90;;;5.00;;
73841;SDS011;62184;52.006;5.924;2023-06-04T04:43:30;7.47;;;5.10;;
73841;SDS011;62184;52.006;5.924;2023-06-04T04:45:59;7.40;;;4.95;;
73841;SDS011;62184;52.006;5.924;2023-06-04T04:48:26;8.02;;;5.25;;
73841;SDS011;62184;52.006;5.924;2023-06-04T04:50:52;8.40;;;5.00;;
73841;SDS011;62184;52.006;5.924;2023-06-04T04:53:19;7.47;;;5.20;;
73841;SDS011;62184;52.006;5.924;2023-06-04T04:55:45;7.25;;;5.10;;
73841;SDS011;62184;52.006;5.924;2023-06-04T04:58:12;8.75;;;5.30;;
73841;SDS011;62184;52.006;5.924;2023-06-04T05:00:42;8.30;;;5.30;;
73841;SDS011;62184;52.006;5.924;2023-06-04T05:03:09;9.45;;;5.50;;
73841;SDS011;62184;52.006;5.924;2023-06-04T05:05:36;7.68;;;5.57;;
73841;SDS011;62184;52.006;5.924;2023-06-04T05:08:02;8.73;;;5.50;;
73841;SDS011;62184;52.006;5.924;2023-06-04T05:10:29;9.20;;;5.50;;
73841;SDS011;62184;52.006;5.924;2023-06-04T05:12:56;7.30;;;5.40;;
73841;SDS011;62184;52.006;5.924;2023-06-04T05:15:25;7.47;;;5.30;;
73841;SDS011;62184;52.006;5.924;2023-06-04T05:17:54;9.27;;;5.50;;
73841;SDS011;62184;52.006;5.924;2023-06-04T05:20:21;8.88;;;5.57;;
73841;SDS011;62184;52.006;5.924;2023-06-04T05:22:47;8.48;;;5.40;;
73841;SDS011;62184;52.006;5.924;2023-06-04T05:25:15;7.95;;;5.50;;
73841;SDS011;62184;52.006;5.924;2023-06-04T05:27:43;8.18;;;5.35;;
73841;SDS011;62184;52.006;5.924;2023-06-04T05:30:10;8.05;;;5.47;;
73841;SDS011;62184;52.006;5.924;2023-06-04T05:32:38;8.98;;;5.57;;
73841;SDS011;62184;52.006;5.924;2023-06-04T05:35:07;8.40;;;5.07;;
73841;SDS011;62184;52.006;5.924;2023-06-04T05:37:35;8.07;;;5.33;;
73841;SDS011;62184;52.006;5.924;2023-06-04T05:40:03;8.95;;;5.60;;
73841;SDS011;62184;52.006;5.924;2023-06-04T05:42:31;7.10;;;5.43;;
73841;SDS011;62184;52.006;5.924;2023-06-04T05:44:58;9.67;;;5.30;;
73841;SDS011;62184;52.006;5.924;2023-06-04T05:47:24;9.25;;;5.68;;
73841;SDS011;62184;52.006;5.924;2023-06-04T05:49:50;10.15;;;5.78;;
73841;SDS011;62184;52.006;5.924;2023-06-04T05:52:19;8.05;;;5.57;;
73841;SDS011;62184;52.006;5.924;2023-06-04T05:54:46;8.13;;;5.83;;
73841;SDS011;62184;52.006;5.924;2023-06-04T05:57:12;9.97;;;5.60;;
73841;SDS011;62184;52.006;5.924;2023-06-04T05:59:39;9.00;;;5.60;;
73841;SDS011;62184;52.006;5.924;2023-06-04T06:02:05;7.82;;;5.50;;
73841;SDS011;62184;52.006;5.924;2023-06-04T06:04:31;7.72;;;5.30;;
73841;SDS011;62184;52.006;5.924;2023-06-04T06:06:58;7.93;;;5.40;;
73841;SDS011;62184;52.006;5.924;2023-06-04T06:09:27;7.93;;;5.40;;
73841;SDS011;62184;52.006;5.924;2023-06-04T06:11:53;7.88;;;5.40;;
73841;SDS011;62184;52.006;5.924;2023-06-04T06:14:19;8.00;;;5.28;;
73841;SDS011;62184;52.006;5.924;2023-06-04T06:16:46;9.02;;;5.20;;
73841;SDS011;62184;52.006;5.924;2023-06-04T06:19:12;7.88;;;5.20;;
73841;SDS011;62184;52.006;5.924;2023-06-04T06:21:39;7.97;;;5.20;;
73841;SDS011;62184;52.006;5.924;2023-06-04T06:24:05;7.50;;;5.20;;
73841;SDS011;62184;52.006;5.924;2023-06-04T06:26:34;8.03;;;5.10;;
73841;SDS011;62184;52.006;5.924;2023-06-04T06:29:01;7.65;;;4.95;;
73841;SDS011;62184;52.006;5.924;2023-06-04T06:31:27;8.38;;;5.22;;
73841;SDS011;62184;52.006;5.924;2023-06-04T06:33:54;7.07;;;5.27;;
73841;SDS011;62184;52.006;5.924;2023-06-04T06:36:20;7.87;;;5.20;;
73841;SDS011;62184;52.006;5.924;2023-06-04T06:38:47;9.48;;;6.03;;
73841;SDS011;62184;52.006;5.924;2023-06-04T06:41:13;8.63;;;5.70;;
73841;SDS011;62184;52.006;5.924;2023-06-04T06:43:42;8.38;;;5.90;;
73841;SDS011;62184;52.006;5.924;2023-06-04T06:46:09;9.38;;;6.03;;
73841;SDS011;62184;52.006;5.924;2023-06-04T06:48:35;7.75;;;6.05;;
73841;SDS011;62184;52.006;5.924;2023-06-04T06:51:01;8.63;;;6.03;;
73841;SDS011;62184;52.006;5.924;2023-06-04T06:53:28;7.63;;;6.13;;
73841;SDS011;62184;52.006;5.924;2023-06-04T06:55:54;7.72;;;6.20;;
73841;SDS011;62184;52.006;5.924;2023-06-04T06:58:21;8.07;;;6.20;;
73841;SDS011;62184;52.006;5.924;2023-06-04T07:00:50;7.55;;;6.15;;
73841;SDS011;62184;52.006;5.924;2023-06-04T07:03:17;7.88;;;5.80;;
73841;SDS011;62184;52.006;5.924;2023-06-04T07:05:43;7.53;;;6.00;;
73841;SDS011;62184;52.006;5.924;2023-06-04T07:08:10;8.48;;;6.00;;
73841;SDS011;62184;52.006;5.924;2023-06-04T07:10:36;8.23;;;6.20;;
73841;SDS011;62184;52.006;5.924;2023-06-04T07:13:02;8.02;;;5.95;;
73841;SDS011;62184;52.006;5.924;2023-06-04T07:15:29;7.70;;;6.00;;
73841;SDS011;62184;52.006;5.924;2023-06-04T07:17:58;8.30;;;6.05;;
73841;SDS011;62184;52.006;5.924;2023-06-04T07:20:24;7.72;;;6.20;;
73841;SDS011;62184;52.006;5.924;2023-06-04T07:22:51;8.57;;;5.87;;
73841;SDS011;62184;52.006;5.924;2023-06-04T07:25:17;7.87;;;6.30;;
73841;SDS011;62184;52.006;5.924;2023-06-04T07:27:45;9.10;;;6.18;;
73841;SDS011;62184;52.006;5.924;2023-06-04T07:30:14;8.10;;;6.30;;
73841;SDS011;62184;52.006;5.924;2023-06-04T07:32:40;8.82;;;6.40;;
73841;SDS011;62184;52.006;5.924;2023-06-04T07:35:09;7.72;;;6.40;;
73841;SDS011;62184;52.006;5.924;2023-06-04T07:37:36;7.88;;;6.28;;
73841;SDS011;62184;52.006;5.924;2023-06-04T07:40:02;7.60;;;6.10;;
73841;SDS011;62184;52.006;5.924;2023-06-04T07:42:30;7.35;;;6.20;;
73841;SDS011;62184;52.006;5.924;2023-06-04T07:44:57;8.25;;;6.10;;
73841;SDS011;62184;52.006;5.924;2023-06-04T07:47:24;7.10;;;5.47;;
73841;SDS011;62184;52.006;5.924;2023-06-04T07:49:50;6.57;;;5.30;;
73841;SDS011;62184;52.006;5.924;2023-06-04T07:52:19;7.43;;;5.28;;
73841;SDS011;62184;52.006;5.924;2023-06-04T07:54:45;6.97;;;5.28;;
73841;SDS011;62184;52.006;5.924;2023-06-04T07:57:12;6.82;;;5.40;;
73841;SDS011;62184;52.006;5.924;2023-06-04T07:59:38;6.80;;;5.20;;
73841;SDS011;62184;52.006;5.924;2023-06-04T08:02:05;7.55;;;5.57;;
73841;SDS011;62184;52.006;5.924;2023-06-04T08:04:31;7.43;;;5.60;;
73841;SDS011;62184;52.006;5.924;2023-06-04T08:06:58;7.45;;;5.63;;
73841;SDS011;62184;52.006;5.924;2023-06-04T08:09:27;6.93;;;5.38;;
73841;SDS011;62184;52.006;5.924;2023-06-04T08:11:53;6.93;;;5.53;;
73841;SDS011;62184;52.006;5.924;2023-06-04T08:14:19;6.18;;;5.22;;
73841;SDS011;62184;52.006;5.924;2023-06-04T08:16:46;6.22;;;5.30;;
73841;SDS011;62184;52.006;5.924;2023-06-04T08:19:12;7.38;;;5.45;;
73841;SDS011;62184;52.006;5.924;2023-06-04T08:21:39;6.60;;;5.00;;
73841;SDS011;62184;52.006;5.924;2023-06-04T08:24:05;8.73;;;5.85;;
73841;SDS011;62184;52.006;5.924;2023-06-04T08:26:34;6.47;;;5.80;;
73841;SDS011;62184;52.006;5.924;2023-06-04T08:29:02;7.22;;;5.60;;
73841;SDS011;62184;52.006;5.924;2023-06-04T08:31:29;6.90;;;5.50;;
73841;SDS011;62184;52.006;5.924;2023-06-04T08:33:55;6.28;;;5.38;;
73841;SDS011;62184;52.006;5.924;2023-06-04T08:36:22;7.70;;;5.30;;
73841;SDS011;62184;52.006;5.924;2023-06-04T08:38:48;7.28;;;5.40;;
73841;SDS011;62184;52.006;5.924;2023-06-04T08:41:15;7.65;;;5.70;;
73841;SDS011;62184;52.006;5.924;2023-06-04T08:43:56;6.80;;;5.40;;
73841;SDS011;62184;52.006;5.924;2023-06-04T08:46:23;7.07;;;5.63;;
73841;SDS011;62184;52.006;5.924;2023-06-04T08:48:52;7.10;;;5.80;;
73841;SDS011;62184;52.006;5.924;2023-06-04T08:51:25;6.22;;;5.50;;
73841;SDS011;62184;52.006;5.924;2023-06-04T08:53:52;6.75;;;5.60;;
73841;SDS011;62184;52.006;5.924;2023-06-04T08:56:19;7.23;;;5.53;;
73841;SDS011;62184;52.006;5.924;2023-06-04T08:58:46;6.30;;;5.38;;
73841;SDS011;62184;52.006;5.924;2023-06-04T09:01:16;7.05;;;5.60;;
73841;SDS011;62184;52.006;5.924;2023-06-04T09:03:43;6.40;;;5.28;;
73841;SDS011;62184;52.006;5.924;2023-06-04T09:06:10;6.60;;;5.90;;
73841;SDS011;62184;52.006;5.924;2023-06-04T09:08:39;6.40;;;5.70;;
73841;SDS011;62184;52.006;5.924;2023-06-04T09:11:09;6.88;;;5.60;;
73841;SDS011;62184;52.006;5.924;2023-06-04T09:13:41;7.03;;;5.80;;
73841;SDS011;62184;52.006;5.924;2023-06-04T09:16:15;6.90;;;5.70;;
73841;SDS011;62184;52.006;5.924;2023-06-04T09:18:42;6.13;;;5.40;;
73841;SDS011;62184;52.006;5.924;2023-06-04T09:21:10;6.80;;;6.10;;
73841;SDS011;62184;52.006;5.924;2023-06-04T09:23:37;6.22;;;5.50;;
73841;SDS011;62184;52.006;5.924;2023-06-04T09:26:11;6.28;;;5.68;;
73841;SDS011;62184;52.006;5.924;2023-06-04T09:28:39;6.60;;;5.63;;
73841;SDS011;62184;52.006;5.924;2023-06-04T09:31:07;7.13;;;5.90;;
73841;SDS011;62184;52.006;5.924;2023-06-04T09:33:44;6.57;;;5.88;;
73841;SDS011;62184;52.006;5.924;2023-06-04T09:36:11;6.13;;;5.53;;
73841;SDS011;62184;52.006;5.924;2023-06-04T09:38:38;6.40;;;5.80;;
73841;SDS011;62184;52.006;5.924;2023-06-04T09:41:10;6.60;;;5.70;;
73841;SDS011;62184;52.006;5.924;2023-06-04T09:43:37;6.00;;;5.40;;
73841;SDS011;62184;52.006;5.924;2023-06-04T09:46:08;6.40;;;5.70;;
73841;SDS011;62184;52.006;5.924;2023-06-04T09:48:36;6.30;;;5.60;;
73841;SDS011;62184;52.006;5.924;2023-06-04T09:51:08;5.90;;;5.30;;
73841;SDS011;62184;52.006;5.924;2023-06-04T09:53:37;6.22;;;5.63;;
73841;SDS011;62184;52.006;5.924;2023-06-04T09:56:05;6.28;;;5.68;;
73841;SDS011;62184;52.006;5.924;2023-06-04T09:58:32;7.20;;;5.40;;
73841;SDS011;62184;52.006;5.924;2023-06-04T10:01:03;6.45;;;5.85;;
73841;SDS011;62184;52.006;5.924;2023-06-04T10:03:31;6.25;;;5.70;;
73841;SDS011;62184;52.006;5.924;2023-06-04T10:06:02;6.80;;;6.10;;
73841;SDS011;62184;52.006;5.924;2023-06-04T10:08:33;6.78;;;6.07;;
73841;SDS011;62184;52.006;5.924;2023-06-04T10:11:00;6.82;;;6.13;;
73841;SDS011;62184;52.006;5.924;2023-06-04T10:13:29;6.60;;;5.80;;
73841;SDS011;62184;52.006;5.924;2023-06-04T10:16:01;6.65;;;5.78;;
73841;SDS011;62184;52.006;5.924;2023-06-04T10:18:29;6.50;;;5.90;;
73841;SDS011;62184;52.006;5.924;2023-06-04T10:20:57;7.22;;;6.40;;
73841;SDS011;62184;52.006;5.924;2023-06-04T10:23:24;6.80;;;6.10;;
73841;SDS011;62184;52.006;5.924;2023-06-04T10:25:53;6.75;;;6.10;;
73841;SDS011;62184;52.006;5.924;2023-06-04T10:28:20;7.47;;;6.10;;
73841;SDS011;62184;52.006;5.924;2023-06-04T10:30:48;6.65;;;5.95;;
73841;SDS011;62184;52.006;5.924;2023-06-04T10:33:16;6.63;;;5.93;;
73841;SDS011;62184;52.006;5.924;2023-06-04T10:35:44;6.40;;;5.80;;
73841;SDS011;62184;52.006;5.924;2023-06-04T10:38:10;7.38;;;6.20;;
73841;SDS011;62184;52.006;5.924;2023-06-04T10:40:39;6.57;;;5.97;;
73841;SDS011;62184;52.006;5.924;2023-06-04T10:43:08;6.60;;;6.00;;
73841;SDS011;62184;52.006;5.924;2023-06-04T10:45:37;6.97;;;6.28;;
73841;SDS011;62184;52.006;5.924;2023-06-04T10:48:04;6.43;;;5.82;;
73841;SDS011;62184;52.006;5.924;2023-06-04T10:50:34;6.80;;;6.10;;
73841;SDS011;62184;52.006;5.924;2023-06-04T10:53:13;6.53;;;5.93;;
73841;SDS011;62184;52.006;5.924;2023-06-04T10:55:43;6.50;;;5.90;;
73841;SDS011;62184;52.006;5.924;2023-06-04T10:58:13;6.90;;;6.30;;
73841;SDS011;62184;52.006;5.924;2023-06-04T11:00:42;6.50;;;5.90;;
73841;SDS011;62184;52.006;5.924;2023-06-04T11:03:10;6.80;;;6.20;;
73841;SDS011;62184;52.006;5.924;2023-06-04T11:05:38;7.38;;;6.00;;
73841;SDS011;62184;52.006;5.924;2023-06-04T11:08:07;6.72;;;6.03;;
73841;SDS011;62184;52.006;5.924;2023-06-04T11:10:35;6.85;;;6.07;;
73841;SDS011;62184;52.006;5.924;2023-06-04T11:13:04;6.70;;;6.00;;
73841;SDS011;62184;52.006;5.924;2023-06-04T11:15:40;7.25;;;5.70;;
73841;SDS011;62184;52.006;5.924;2023-06-04T11:18:08;6.40;;;5.22;;
73841;SDS011;62184;52.006;5.924;2023-06-04T11:20:40;5.70;;;5.10;;
73841;SDS011;62184;52.006;5.924;2023-06-04T11:23:07;6.28;;;5.50;;
73841;SDS011;62184;52.006;5.924;2023-06-04T11:25:34;6.15;;;5.55;;
73841;SDS011;62184;52.006;5.924;2023-06-04T11:28:01;6.35;;;5.50;;
73841;SDS011;62184;52.006;5.924;2023-06-04T11:30:27;6.10;;;5.45;;
73841;SDS011;62184;52.006;5.924;2023-06-04T11:33:03;6.18;;;5.50;;
73841;SDS011;62184;52.006;5.924;2023-06-04T11:35:38;6.90;;;6.30;;
73841;SDS011;62184;52.006;5.924;2023-06-04T11:38:07;7.80;;;7.10;;
73841;SDS011;62184;52.006;5.924;2023-06-04T11:40:34;7.77;;;7.07;;
73841;SDS011;62184;52.006;5.924;2023-06-04T11:43:01;7.88;;;7.18;;
73841;SDS011;62184;52.006;5.924;2023-06-04T11:45:28;7.40;;;6.80;;
73841;SDS011;62184;52.006;5.924;2023-06-04T11:47:55;7.00;;;6.40;;
73841;SDS011;62184;52.006;5.924;2023-06-04T11:50:26;7.57;;;6.88;;
73841;SDS011;62184;52.006;5.924;2023-06-04T11:52:54;7.80;;;7.10;;
73841;SDS011;62184;52.006;5.924;2023-06-04T11:55:21;8.00;;;7.28;;
73841;SDS011;62184;52.006;5.924;2023-06-04T11:57:48;7.82;;;7.05;;
73841;SDS011;62184;52.006;5.924;2023-06-04T12:00:16;7.63;;;6.93;;
73841;SDS011;62184;52.006;5.924;2023-06-04T12:02:51;7.60;;;7.00;;
73841;SDS011;62184;52.006;5.924;2023-06-04T12:05:21;7.63;;;6.93;;
73841;SDS011;62184;52.006;5.924;2023-06-04T12:08:03;7.97;;;7.30;;
73841;SDS011;62184;52.006;5.924;2023-06-04T12:10:36;7.80;;;7.10;;
73841;SDS011;62184;52.006;5.924;2023-06-04T12:13:03;8.40;;;7.70;;
73841;SDS011;62184;52.006;5.924;2023-06-04T12:15:30;8.23;;;7.47;;
73841;SDS011;62184;52.006;5.924;2023-06-04T12:17:56;8.57;;;7.87;;
73841;SDS011;62184;52.006;5.924;2023-06-04T12:20:35;8.38;;;7.60;;
73841;SDS011;62184;52.006;5.924;2023-06-04T12:23:04;8.00;;;7.30;;
73841;SDS011;62184;52.006;5.924;2023-06-04T12:25:32;8.65;;;7.95;;
73841;SDS011;62184;52.006;5.924;2023-06-04T12:28:00;9.18;;;8.38;;
73841;SDS011;62184;52.006;5.924;2023-06-04T12:33:11;8.67;;;7.90;;
73841;SDS011;62184;52.006;5.924;2023-06-04T12:35:40;8.93;;;8.15;;
73841;SDS011;62184;52.006;5.924;2023-06-04T12:38:07;8.75;;;8.05;;
73841;SDS011;62184;52.006;5.924;2023-06-04T12:40:33;8.40;;;7.70;;
73841;SDS011;62184;52.006;5.924;2023-06-04T12:43:00;8.65;;;7.93;;
73841;SDS011;62184;52.006;5.924;2023-06-04T12:45:26;8.82;;;7.93;;
73841;SDS011;62184;52.006;5.924;2023-06-04T12:47:53;8.73;;;8.02;;
73841;SDS011;62184;52.006;5.924;2023-06-04T12:50:19;8.20;;;7.50;;
73841;SDS011;62184;52.006;5.924;2023-06-04T12:52:48;8.20;;;7.50;;
73841;SDS011;62184;52.006;5.924;2023-06-04T12:55:15;8.70;;;7.90;;
73841;SDS011;62184;52.006;5.924;2023-06-04T12:57:41;8.20;;;7.50;;
73841;SDS011;62184;52.006;5.924;2023-06-04T13:00:08;9.02;;;8.20;;
73841;SDS011;62184;52.006;5.924;2023-06-04T13:02:35;8.77;;;8.10;;
73841;SDS011;62184;52.006;5.924;2023-06-04T13:05:02;8.63;;;7.93;;
73841;SDS011;62184;52.006;5.924;2023-06-04T13:07:29;9.43;;;8.70;;
73841;SDS011;62184;52.006;5.924;2023-06-04T13:09:58;8.80;;;8.10;;
73841;SDS011;62184;52.006;5.924;2023-06-04T13:12:24;9.03;;;8.23;;
73841;SDS011;62184;52.006;5.924;2023-06-04T13:14:52;8.52;;;7.82;;
73841;SDS011;62184;52.006;5.924;2023-06-04T13:17:18;9.48;;;8.48;;
73841;SDS011;62184;52.006;5.924;2023-06-04T13:19:44;29.80;;;10.40;;
73841;SDS011;62184;52.006;5.924;2023-06-04T13:22:11;8.88;;;8.15;;
73841;SDS011;62184;52.006;5.924;2023-06-04T13:24:37;9.53;;;8.77;;
73841;SDS011;62184;52.006;5.924;2023-06-04T13:27:06;9.73;;;8.95;;
73841;SDS011;62184;52.006;5.924;2023-06-04T13:29:35;9.00;;;8.20;;
73841;SDS011;62184;52.006;5.924;2023-06-04T13:32:01;9.70;;;8.90;;
73841;SDS011;62184;52.006;5.924;2023-06-04T13:34:28;9.65;;;8.85;;
73841;SDS011;62184;52.006;5.924;2023-06-04T13:36:54;10.13;;;9.32;;
73841;SDS011;62184;52.006;5.924;2023-06-04T13:39:21;10.27;;;9.40;;
73841;SDS011;62184;52.006;5.924;2023-06-04T13:41:47;10.20;;;9.38;;
73841;SDS011;62184;52.006;5.924;2023-06-04T13:44:16;9.73;;;9.02;;
73841;SDS011;62184;52.006;5.924;2023-06-04T13:46:43;9.32;;;8.60;;
73841;SDS011;62184;52.006;5.924;2023-06-04T13:49:09;9.60;;;8.80;;
73841;SDS011;62184;52.006;5.924;2023-06-04T13:51:36;9.60;;;8.75;;
73841;SDS011;62184;52.006;5.924;2023-06-04T13:54:02;9.20;;;8.48;;
73841;SDS011;62184;52.006;5.924;2023-06-04T13:56:29;9.40;;;8.70;;
73841;SDS011;62184;52.006;5.924;2023-06-04T13:58:55;9.27;;;8.47;;
73841;SDS011;62184;52.006;5.924;2023-06-04T14:01:24;8.90;;;8.10;;
73841;SDS011;62184;52.006;5.924;2023-06-04T14:03:51;9.27;;;8.50;;
73841;SDS011;62184;52.006;5.924;2023-06-04T14:06:17;9.75;;;8.93;;
73841;SDS011;62184;52.006;5.924;2023-06-04T14:08:43;8.73;;;8.02;;
73841;SDS011;62184;52.006;5.924;2023-06-04T14:11:11;8.68;;;7.97;;
73841;SDS011;62184;52.006;5.924;2023-06-04T14:13:37;8.83;;;8.03;;
73841;SDS011;62184;52.006;5.924;2023-06-04T14:16:05;8.70;;;7.80;;
73841;SDS011;62184;52.006;5.924;2023-06-04T14:18:34;8.45;;;7.75;;
73841;SDS011;62184;52.006;5.924;2023-06-04T14:21:00;8.30;;;7.50;;
73841;SDS011;62184;52.006;5.924;2023-06-04T14:23:27;9.38;;;8.57;;
73841;SDS011;62184;52.006;5.924;2023-06-04T14:25:53;8.80;;;8.00;;
73841;SDS011;62184;52.006;5.924;2023-06-04T14:28:19;8.73;;;8.03;;
73841;SDS011;62184;52.006;5.924;2023-06-04T14:30:46;8.77;;;7.90;;
73841;SDS011;62184;52.006;5.924;2023-06-04T14:33:12;8.90;;;8.10;;
73841;SDS011;62184;52.006;5.924;2023-06-04T14:35:42;9.07;;;8.27;;
73841;SDS011;62184;52.006;5.924;2023-06-04T14:38:09;8.90;;;8.20;;
73841;SDS011;62184;52.006;5.924;2023-06-04T14:40:36;8.50;;;7.80;;
73841;SDS011;62184;52.006;5.924;2023-06-04T14:43:03;8.70;;;7.90;;
73841;SDS011;62184;52.006;5.924;2023-06-04T14:45:29;8.83;;;8.03;;
73841;SDS011;62184;52.006;5.924;2023-06-04T14:47:55;9.30;;;8.50;;
73841;SDS011;62184;52.006;5.924;2023-06-04T14:50:22;8.75;;;8.00;;
73841;SDS011;62184;52.006;5.924;2023-06-04T14:52:51;8.75;;;8.05;;
73841;SDS011;62184;52.006;5.924;2023-06-04T14:55:17;8.80;;;8.10;;